sensor_id;sensor_type;location;lat;lon;timestamp;pressure;altitude;pressure_sealevel;temperature;humidity
83116;BME280;72996;40.206;44.498;2024-02-15T00:01:42;88734.88;;;12.90;46.51
83116;BME280;72996;40.206;44.498;2024-02-15T00:04:07;88731.72;;;12.82;46.28
83116;BME280;72996;40.206;44.498;2024-02-15T00:06:33;88750.38;;;12.93;46.46
83116;BME280;72996;40.206;44.498;2024-02-15T00:08:59;88750.81;;;12.90;46.47
83116;BME280;72996;40.206;44.498;2024-02-15T00:11:25;88744.09;;;12.89;46.58
83116;BME280;72996;40.206;44.498;2024-02-15T00:13:51;88754.16;;;12.90;46.49
83116;BME280;72996;40.206;44.498;2024-02-15T00:16:16;88749.81;;;12.95;46.26
83116;BME280;72996;40.206;44.498;2024-02-15T00:18:42;88746.06;;;12.98;46.23
83116;BME280;72996;40.206;44.498;2024-02-15T00:21:07;88753.00;;;13.03;46.08
83116;BME280;72996;40.206;44.498;2024-02-15T00:23:33;88738.47;;;13.04;46.10
83116;BME280;72996;40.206;44.498;2024-02-15T00:25:59;88732.69;;;12.96;46.30
83116;BME280;72996;40.206;44.498;2024-02-15T00:28:24;88736.97;;;12.91;46.46
83116;BME280;72996;40.206;44.498;2024-02-15T00:30:52;88732.38;;;12.92;45.82
83116;BME280;72996;40.206;44.498;2024-02-15T00:33:18;88741.47;;;12.98;46.22
83116;BME280;72996;40.206;44.498;2024-02-15T00:35:44;88739.38;;;12.97;46.55
83116;BME280;72996;40.206;44.498;2024-02-15T00:38:09;88730.03;;;12.86;46.53
83116;BME280;72996;40.206;44.498;2024-02-15T00:40:35;88732.00;;;12.86;46.42
83116;BME280;72996;40.206;44.498;2024-02-15T00:43:01;88728.91;;;12.89;46.30
83116;BME280;72996;40.206;44.498;2024-02-15T00:45:27;88699.63;;;12.78;46.49
83116;BME280;72996;40.206;44.498;2024-02-15T00:47:52;88697.50;;;12.86;45.88
83116;BME280;72996;40.206;44.498;2024-02-15T00:50:19;88717.16;;;13.02;45.90
83116;BME280;72996;40.206;44.498;2024-02-15T00:52:45;88709.19;;;13.02;46.51
83116;BME280;72996;40.206;44.498;2024-02-15T00:55:10;88731.91;;;13.05;46.26
83116;BME280;72996;40.206;44.498;2024-02-15T00:57:36;88722.06;;;12.96;46.14
83116;BME280;72996;40.206;44.498;2024-02-15T01:00:03;88728.31;;;13.00;45.97
83116;BME280;72996;40.206;44.498;2024-02-15T01:02:31;88724.13;;;12.97;45.89
83116;BME280;72996;40.206;44.498;2024-02-15T01:04:57;88724.22;;;13.09;45.86
83116;BME280;72996;40.206;44.498;2024-02-15T01:07:24;88740.56;;;13.05;45.80
83116;BME280;72996;40.206;44.498;2024-02-15T01:09:53;88748.16;;;12.99;45.98
83116;BME280;72996;40.206;44.498;2024-02-15T01:12:19;88744.94;;;13.01;45.79
83116;BME280;72996;40.206;44.498;2024-02-15T01:14:46;88739.47;;;12.99;45.66
83116;BME280;72996;40.206;44.498;2024-02-15T01:17:12;88744.19;;;13.10;45.66
83116;BME280;72996;40.206;44.498;2024-02-15T01:19:37;88742.94;;;13.11;45.09
83116;BME280;72996;40.206;44.498;2024-02-15T01:22:03;88750.91;;;13.11;45.65
83116;BME280;72996;40.206;44.498;2024-02-15T01:24:29;88750.75;;;13.09;45.64
83116;BME280;72996;40.206;44.498;2024-02-15T01:26:55;88733.22;;;12.94;45.49
83116;BME280;72996;40.206;44.498;2024-02-15T01:29:21;88750.75;;;13.09;45.50
83116;BME280;72996;40.206;44.498;2024-02-15T01:31:46;88746.72;;;13.08;45.79
83116;BME280;72996;40.206;44.498;2024-02-15T01:34:12;88753.78;;;13.15;45.50
83116;BME280;72996;40.206;44.498;2024-02-15T01:36:38;88751.28;;;13.17;45.37
83116;BME280;72996;40.206;44.498;2024-02-15T01:39:04;88753.78;;;13.15;45.59
83116;BME280;72996;40.206;44.498;2024-02-15T01:41:29;88762.28;;;13.23;45.21
83116;BME280;72996;40.206;44.498;2024-02-15T01:43:55;88761.00;;;13.24;45.21
83116;BME280;72996;40.206;44.498;2024-02-15T01:46:21;88772.28;;;13.34;44.87
83116;BME280;72996;40.206;44.498;2024-02-15T01:48:47;88762.09;;;13.30;44.68
83116;BME280;72996;40.206;44.498;2024-02-15T01:51:13;88752.78;;;13.20;45.32
83116;BME280;72996;40.206;44.498;2024-02-15T01:53:41;88781.63;;;13.35;46.12
83116;BME280;72996;40.206;44.498;2024-02-15T01:56:07;88732.38;;;12.92;45.18
83116;BME280;72996;40.206;44.498;2024-02-15T01:58:33;88768.41;;;13.25;45.00
83116;BME280;72996;40.206;44.498;2024-02-15T02:01:00;88791.22;;;13.40;44.99
83116;BME280;72996;40.206;44.498;2024-02-15T02:03:29;88791.22;;;13.40;45.08
83116;BME280;72996;40.206;44.498;2024-02-15T02:05:56;88770.06;;;13.30;44.88
83116;BME280;72996;40.206;44.498;2024-02-15T02:08:21;88779.19;;;13.18;45.56
83116;BME280;72996;40.206;44.498;2024-02-15T02:10:47;88798.72;;;13.22;46.72
83116;BME280;72996;40.206;44.498;2024-02-15T02:13:13;88794.47;;;13.08;46.72
83116;BME280;72996;40.206;44.498;2024-02-15T02:15:39;88794.66;;;12.91;48.29
83116;BME280;72996;40.206;44.498;2024-02-15T02:18:05;88787.84;;;12.78;48.36
83116;BME280;72996;40.206;44.498;2024-02-15T02:20:32;88790.50;;;12.69;49.15
83116;BME280;72996;40.206;44.498;2024-02-15T02:23:15;88794.75;;;12.53;53.62
83116;BME280;72996;40.206;44.498;2024-02-15T02:25:44;88806.31;;;12.57;49.76
83116;BME280;72996;40.206;44.498;2024-02-15T02:28:12;88787.19;;;12.59;49.76
83116;BME280;72996;40.206;44.498;2024-02-15T02:30:38;88787.47;;;12.63;50.41
83116;BME280;72996;40.206;44.498;2024-02-15T02:33:13;88802.22;;;12.75;51.77
83116;BME280;72996;40.206;44.498;2024-02-15T02:35:44;88814.53;;;12.71;50.55
83116;BME280;72996;40.206;44.498;2024-02-15T02:38:10;88797.63;;;12.66;50.71
83116;BME280;72996;40.206;44.498;2024-02-15T02:40:35;88818.16;;;12.66;50.97
83116;BME280;72996;40.206;44.498;2024-02-15T02:43:01;88797.56;;;12.36;51.38
83116;BME280;72996;40.206;44.498;2024-02-15T02:45:27;88813.75;;;12.40;51.65
83116;BME280;72996;40.206;44.498;2024-02-15T02:47:53;88813.44;;;12.45;52.52
83116;BME280;72996;40.206;44.498;2024-02-15T02:50:20;88819.31;;;12.44;52.22
83116;BME280;72996;40.206;44.498;2024-02-15T02:52:46;88809.13;;;12.40;53.28
83116;BME280;72996;40.206;44.498;2024-02-15T02:55:14;88817.63;;;12.39;53.86
83116;BME280;72996;40.206;44.498;2024-02-15T02:57:40;88824.78;;;12.27;53.26
83116;BME280;72996;40.206;44.498;2024-02-15T03:00:11;88819.34;;;12.25;56.34
83116;BME280;72996;40.206;44.498;2024-02-15T03:02:42;88809.84;;;12.03;55.00
83116;BME280;72996;40.206;44.498;2024-02-15T03:05:09;88815.59;;;12.09;54.23
83116;BME280;72996;40.206;44.498;2024-02-15T03:07:36;88831.19;;;12.24;54.91
83116;BME280;72996;40.206;44.498;2024-02-15T03:10:05;88818.91;;;12.09;53.04
83116;BME280;72996;40.206;44.498;2024-02-15T03:12:37;88831.47;;;12.28;53.85
83116;BME280;72996;40.206;44.498;2024-02-15T03:15:04;88836.91;;;12.30;53.24
83116;BME280;72996;40.206;44.498;2024-02-15T03:17:30;88830.75;;;12.18;53.99
83116;BME280;72996;40.206;44.498;2024-02-15T03:19:58;88834.97;;;12.21;53.76
83116;BME280;72996;40.206;44.498;2024-02-15T03:22:25;88816.69;;;12.15;53.77
83116;BME280;72996;40.206;44.498;2024-02-15T03:24:51;88819.06;;;12.21;53.42
83116;BME280;72996;40.206;44.498;2024-02-15T03:27:18;88826.00;;;12.35;53.56
83116;BME280;72996;40.206;44.498;2024-02-15T03:29:48;88817.22;;;12.33;53.47
83116;BME280;72996;40.206;44.498;2024-02-15T03:32:14;88811.25;;;12.23;53.84
83116;BME280;72996;40.206;44.498;2024-02-15T03:34:39;88813.34;;;12.24;54.13
83116;BME280;72996;40.206;44.498;2024-02-15T03:37:05;88809.44;;;12.25;54.07
83116;BME280;72996;40.206;44.498;2024-02-15T03:39:31;88814.19;;;12.36;54.12
83116;BME280;72996;40.206;44.498;2024-02-15T03:41:58;88792.00;;;12.32;53.77
83116;BME280;72996;40.206;44.498;2024-02-15T03:44:24;88802.84;;;12.45;53.64
83116;BME280;72996;40.206;44.498;2024-02-15T03:46:51;88805.06;;;12.49;53.93
83116;BME280;72996;40.206;44.498;2024-02-15T03:49:18;88800.50;;;12.40;54.15
83116;BME280;72996;40.206;44.498;2024-02-15T03:51:44;88801.19;;;12.31;56.10
83116;BME280;72996;40.206;44.498;2024-02-15T03:54:11;88778.50;;;12.09;54.64
83116;BME280;72996;40.206;44.498;2024-02-15T03:56:37;88784.63;;;12.11;54.45
83116;BME280;72996;40.206;44.498;2024-02-15T03:59:11;88793.97;;;12.12;54.39
83116;BME280;72996;40.206;44.498;2024-02-15T04:01:38;88790.22;;;11.96;54.37
83116;BME280;72996;40.206;44.498;2024-02-15T04:04:05;88780.31;;;11.78;54.62
83116;BME280;72996;40.206;44.498;2024-02-15T04:06:30;88777.66;;;11.68;54.94
83116;BME280;72996;40.206;44.498;2024-02-15T04:08:58;88797.59;;;11.79;55.06
83116;BME280;72996;40.206;44.498;2024-02-15T04:11:25;88798.41;;;11.72;55.28
83116;BME280;72996;40.206;44.498;2024-02-15T04:13:51;88811.81;;;11.74;55.55
83116;BME280;72996;40.206;44.498;2024-02-15T04:16:16;88816.81;;;11.70;55.47
83116;BME280;72996;40.206;44.498;2024-02-15T04:18:43;88785.69;;;11.42;55.97
83116;BME280;72996;40.206;44.498;2024-02-15T04:21:10;88822.25;;;11.72;55.38
83116;BME280;72996;40.206;44.498;2024-02-15T04:23:36;88841.94;;;11.88;55.48
83116;BME280;72996;40.206;44.498;2024-02-15T04:26:02;88848.31;;;11.85;55.59
83116;BME280;72996;40.206;44.498;2024-02-15T04:28:28;88852.34;;;11.76;55.62
83116;BME280;72996;40.206;44.498;2024-02-15T04:30:54;88862.81;;;11.84;55.70
83116;BME280;72996;40.206;44.498;2024-02-15T04:33:20;88874.81;;;11.85;55.79
83116;BME280;72996;40.206;44.498;2024-02-15T04:35:46;88871.47;;;11.94;55.56
83116;BME280;72996;40.206;44.498;2024-02-15T04:38:14;88866.19;;;11.94;55.29
83116;BME280;72996;40.206;44.498;2024-02-15T04:40:40;88873.41;;;12.03;54.89
83116;BME280;72996;40.206;44.498;2024-02-15T04:43:05;88859.50;;;11.93;55.39
83116;BME280;72996;40.206;44.498;2024-02-15T04:45:32;88878.19;;;12.14;54.64
83116;BME280;72996;40.206;44.498;2024-02-15T04:47:57;88886.56;;;12.20;54.63
83116;BME280;72996;40.206;44.498;2024-02-15T04:50:27;88898.84;;;12.25;54.28
83116;BME280;72996;40.206;44.498;2024-02-15T04:52:53;88895.34;;;12.22;54.42
83116;BME280;72996;40.206;44.498;2024-02-15T04:55:19;88908.31;;;12.37;53.64
83116;BME280;72996;40.206;44.498;2024-02-15T04:57:45;88904.00;;;12.42;53.80
83116;BME280;72996;40.206;44.498;2024-02-15T05:00:14;88907.59;;;12.46;53.88
83116;BME280;72996;40.206;44.498;2024-02-15T05:02:40;88897.56;;;12.54;53.25
83116;BME280;72996;40.206;44.498;2024-02-15T05:05:07;88893.66;;;12.55;53.65
83116;BME280;72996;40.206;44.498;2024-02-15T05:07:34;88897.41;;;12.62;53.82
83116;BME280;72996;40.206;44.498;2024-02-15T05:10:03;88889.59;;;12.64;53.27
83116;BME280;72996;40.206;44.498;2024-02-15T05:12:31;88887.63;;;12.74;53.46
83116;BME280;72996;40.206;44.498;2024-02-15T05:14:59;88889.06;;;12.75;52.80
83116;BME280;72996;40.206;44.498;2024-02-15T05:17:24;88871.88;;;12.76;52.40
83116;BME280;72996;40.206;44.498;2024-02-15T05:19:50;88859.59;;;12.71;52.44
83116;BME280;72996;40.206;44.498;2024-02-15T05:22:16;88876.19;;;12.81;52.34
83116;BME280;72996;40.206;44.498;2024-02-15T05:24:43;88872.00;;;12.78;52.70
83116;BME280;72996;40.206;44.498;2024-02-15T05:27:09;88856.09;;;12.78;52.80
83116;BME280;72996;40.206;44.498;2024-02-15T05:29:35;88842.72;;;12.76;52.54
83116;BME280;72996;40.206;44.498;2024-02-15T05:32:01;88846.63;;;12.75;52.66
83116;BME280;72996;40.206;44.498;2024-02-15T05:34:27;88856.09;;;12.78;52.32
83116;BME280;72996;40.206;44.498;2024-02-15T05:36:55;88859.16;;;12.84;52.33
83116;BME280;72996;40.206;44.498;2024-02-15T05:39:20;88864.72;;;13.07;51.89
83116;BME280;72996;40.206;44.498;2024-02-15T05:41:47;88845.66;;;13.20;51.62
83116;BME280;72996;40.206;44.498;2024-02-15T05:44:13;88871.88;;;13.35;50.72
83116;BME280;72996;40.206;44.498;2024-02-15T05:46:44;88873.34;;;13.07;51.33
83116;BME280;72996;40.206;44.498;2024-02-15T05:49:10;88872.56;;;12.86;51.60
83116;BME280;72996;40.206;44.498;2024-02-15T05:51:41;88872.97;;;12.92;51.98
83116;BME280;72996;40.206;44.498;2024-02-15T05:54:06;88878.38;;;12.94;51.83
83116;BME280;72996;40.206;44.498;2024-02-15T05:56:32;88871.41;;;12.89;51.86
83116;BME280;72996;40.206;44.498;2024-02-15T05:58:58;88861.22;;;12.95;51.53
83116;BME280;72996;40.206;44.498;2024-02-15T06:01:23;88868.13;;;13.28;51.29
83116;BME280;72996;40.206;44.498;2024-02-15T06:03:50;88870.13;;;13.49;50.67
83116;BME280;72996;40.206;44.498;2024-02-15T06:06:20;88884.03;;;13.68;50.42
83116;BME280;72996;40.206;44.498;2024-02-15T06:08:46;88898.09;;;13.80;50.75
83116;BME280;72996;40.206;44.498;2024-02-15T06:11:13;88890.53;;;13.77;50.07
83116;BME280;72996;40.206;44.498;2024-02-15T06:13:39;88890.69;;;13.79;49.78
83116;BME280;72996;40.206;44.498;2024-02-15T06:16:06;88889.88;;;13.67;49.68
83116;BME280;72996;40.206;44.498;2024-02-15T06:18:34;88901.75;;;13.75;50.06
83116;BME280;72996;40.206;44.498;2024-02-15T06:21:01;88894.97;;;13.63;50.42
83116;BME280;72996;40.206;44.498;2024-02-15T06:23:27;88922.03;;;13.71;50.47
83116;BME280;72996;40.206;44.498;2024-02-15T06:25:54;88926.00;;;13.60;50.68
83116;BME280;72996;40.206;44.498;2024-02-15T06:28:21;88938.56;;;13.60;50.57
83116;BME280;72996;40.206;44.498;2024-02-15T06:31:07;88917.09;;;13.46;50.81
83116;BME280;72996;40.206;44.498;2024-02-15T06:33:51;88945.31;;;13.51;50.43
83116;BME280;72996;40.206;44.498;2024-02-15T06:36:40;88933.06;;;13.37;50.84
83116;BME280;72996;40.206;44.498;2024-02-15T06:39:24;88948.66;;;13.52;51.13
83116;BME280;72996;40.206;44.498;2024-02-15T06:42:09;88958.69;;;13.63;50.98
83116;BME280;72996;40.206;44.498;2024-02-15T06:44:37;88946.53;;;13.60;50.81
83116;BME280;72996;40.206;44.498;2024-02-15T06:47:04;88961.31;;;13.72;50.64
83116;BME280;72996;40.206;44.498;2024-02-15T06:49:29;88955.28;;;13.72;51.06
83116;BME280;72996;40.206;44.498;2024-02-15T06:51:55;88962.97;;;14.08;50.46
83116;BME280;72996;40.206;44.498;2024-02-15T06:54:21;88963.50;;;14.16;50.34
83116;BME280;72996;40.206;44.498;2024-02-15T06:56:50;88932.16;;;14.24;49.84
83116;BME280;72996;40.206;44.498;2024-02-15T06:59:20;88962.41;;;14.61;49.48
83116;BME280;72996;40.206;44.498;2024-02-15T07:01:51;88953.66;;;14.70;49.15
83116;BME280;72996;40.206;44.498;2024-02-15T07:04:18;88946.19;;;14.57;48.07
83116;BME280;72996;40.206;44.498;2024-02-15T07:06:44;88907.03;;;14.06;48.34
83116;BME280;72996;40.206;44.498;2024-02-15T07:09:13;88942.41;;;14.39;48.31
83116;BME280;72996;40.206;44.498;2024-02-15T07:11:40;88950.06;;;14.44;48.33
83116;BME280;72996;40.206;44.498;2024-02-15T07:14:06;88946.50;;;15.05;47.55
83116;BME280;72996;40.206;44.498;2024-02-15T07:16:33;88935.00;;;15.90;46.67
83116;BME280;72996;40.206;44.498;2024-02-15T07:18:59;88947.88;;;16.88;45.47
83116;BME280;72996;40.206;44.498;2024-02-15T07:21:25;88915.06;;;17.10;41.75
83116;BME280;72996;40.206;44.498;2024-02-15T07:23:55;88934.94;;;17.32;42.28
83116;BME280;72996;40.206;44.498;2024-02-15T07:26:24;88938.09;;;17.29;42.96
83116;BME280;72996;40.206;44.498;2024-02-15T07:28:54;88939.47;;;17.55;42.11
83116;BME280;72996;40.206;44.498;2024-02-15T07:31:20;88936.59;;;17.26;41.46
83116;BME280;72996;40.206;44.498;2024-02-15T07:33:50;88937.13;;;18.67;42.53
83116;BME280;72996;40.206;44.498;2024-02-15T07:36:23;88927.16;;;20.61;37.45
83116;BME280;72996;40.206;44.498;2024-02-15T07:38:49;88903.78;;;21.14;38.23
83116;BME280;72996;40.206;44.498;2024-02-15T07:41:17;88923.50;;;21.03;35.64
83116;BME280;72996;40.206;44.498;2024-02-15T07:43:43;88931.47;;;21.34;36.05
83116;BME280;72996;40.206;44.498;2024-02-15T07:46:13;88928.69;;;21.32;32.65
83116;BME280;72996;40.206;44.498;2024-02-15T07:48:39;88932.41;;;20.90;35.53
83116;BME280;72996;40.206;44.498;2024-02-15T07:51:11;88925.69;;;21.24;36.03
83116;BME280;72996;40.206;44.498;2024-02-15T07:53:36;88926.44;;;21.09;36.03
83116;BME280;72996;40.206;44.498;2024-02-15T07:56:02;88909.78;;;20.00;35.63
83116;BME280;72996;40.206;44.498;2024-02-15T07:58:28;88936.56;;;19.11;37.83
83116;BME280;72996;40.206;44.498;2024-02-15T08:00:53;88929.22;;;18.42;39.18
83116;BME280;72996;40.206;44.498;2024-02-15T08:03:19;88923.81;;;19.39;38.19
83116;BME280;72996;40.206;44.498;2024-02-15T08:05:45;88910.56;;;18.71;38.25
83116;BME280;72996;40.206;44.498;2024-02-15T08:08:11;88928.34;;;18.38;39.03
83116;BME280;72996;40.206;44.498;2024-02-15T08:10:37;88920.66;;;17.92;40.12
83116;BME280;72996;40.206;44.498;2024-02-15T08:13:03;88914.47;;;17.37;40.47
83116;BME280;72996;40.206;44.498;2024-02-15T08:15:29;88907.69;;;16.98;41.39
83116;BME280;72996;40.206;44.498;2024-02-15T08:18:08;88859.50;;;16.34;42.73
83116;BME280;72996;40.206;44.498;2024-02-15T08:20:48;88909.47;;;16.45;42.67
83116;BME280;72996;40.206;44.498;2024-02-15T08:23:14;88895.66;;;17.35;42.03
83116;BME280;72996;40.206;44.498;2024-02-15T08:25:40;88894.63;;;17.92;41.06
83116;BME280;72996;40.206;44.498;2024-02-15T08:28:06;88899.78;;;18.15;40.46
83116;BME280;72996;40.206;44.498;2024-02-15T08:30:33;88895.28;;;17.79;40.20
83116;BME280;72996;40.206;44.498;2024-02-15T08:32:58;88874.75;;;17.43;40.56
83116;BME280;72996;40.206;44.498;2024-02-15T08:35:24;88874.22;;;17.85;40.37
83116;BME280;72996;40.206;44.498;2024-02-15T08:37:50;88874.91;;;18.13;40.45
83116;BME280;72996;40.206;44.498;2024-02-15T08:40:18;88858.63;;;17.55;40.21
83116;BME280;72996;40.206;44.498;2024-02-15T08:42:50;88866.81;;;17.45;40.50
83116;BME280;72996;40.206;44.498;2024-02-15T08:45:15;88866.09;;;18.10;40.58
83116;BME280;72996;40.206;44.498;2024-02-15T08:47:42;88837.19;;;18.76;38.44
83116;BME280;72996;40.206;44.498;2024-02-15T08:50:09;88855.84;;;19.32;39.03
83116;BME280;72996;40.206;44.498;2024-02-15T08:52:38;88850.69;;;19.67;37.33
83116;BME280;72996;40.206;44.498;2024-02-15T08:55:09;88840.13;;;19.71;36.53
83116;BME280;72996;40.206;44.498;2024-02-15T08:57:36;88813.84;;;19.52;37.19
83116;BME280;72996;40.206;44.498;2024-02-15T09:00:05;88845.22;;;20.27;36.83
83116;BME280;72996;40.206;44.498;2024-02-15T09:02:38;88827.97;;;20.65;36.33
83116;BME280;72996;40.206;44.498;2024-02-15T09:05:06;88848.06;;;20.64;36.65
83116;BME280;72996;40.206;44.498;2024-02-15T09:07:31;88841.59;;;19.74;35.85
83116;BME280;72996;40.206;44.498;2024-02-15T09:09:57;88829.38;;;18.96;37.63
83116;BME280;72996;40.206;44.498;2024-02-15T09:12:23;88834.56;;;18.63;38.06
83116;BME280;72996;40.206;44.498;2024-02-15T09:14:48;88832.31;;;18.17;38.81
83116;BME280;72996;40.206;44.498;2024-02-15T09:17:14;88837.47;;;17.99;39.37
83116;BME280;72996;40.206;44.498;2024-02-15T09:19:39;88837.25;;;18.36;38.92
83116;BME280;72996;40.206;44.498;2024-02-15T09:22:06;88828.91;;;19.15;38.90
83116;BME280;72996;40.206;44.498;2024-02-15T09:24:32;88794.88;;;19.95;37.38
83116;BME280;72996;40.206;44.498;2024-02-15T09:27:02;88817.47;;;20.71;36.69
83116;BME280;72996;40.206;44.498;2024-02-15T09:29:30;88827.28;;;22.09;34.52
83116;BME280;72996;40.206;44.498;2024-02-15T09:31:58;88815.84;;;22.08;31.96
83116;BME280;72996;40.206;44.498;2024-02-15T09:34:24;88808.59;;;22.32;33.15
83116;BME280;72996;40.206;44.498;2024-02-15T09:36:50;88790.19;;;21.86;32.86
83116;BME280;72996;40.206;44.498;2024-02-15T09:39:16;88802.69;;;21.60;33.90
83116;BME280;72996;40.206;44.498;2024-02-15T09:41:43;88822.16;;;20.88;34.74
83116;BME280;72996;40.206;44.498;2024-02-15T09:44:08;88824.75;;;20.86;35.55
83116;BME280;72996;40.206;44.498;2024-02-15T09:46:36;88824.47;;;21.85;33.88
83116;BME280;72996;40.206;44.498;2024-02-15T09:49:03;88816.53;;;22.48;33.63
83116;BME280;72996;40.206;44.498;2024-02-15T09:51:30;88818.72;;;21.75;32.03
83116;BME280;72996;40.206;44.498;2024-02-15T09:53:59;88802.22;;;20.93;34.26
83116;BME280;72996;40.206;44.498;2024-02-15T09:56:26;88807.22;;;20.50;34.43
83116;BME280;72996;40.206;44.498;2024-02-15T09:58:54;88802.31;;;19.96;34.78
83116;BME280;72996;40.206;44.498;2024-02-15T10:01:23;88803.22;;;19.54;35.29
83116;BME280;72996;40.206;44.498;2024-02-15T10:03:50;88800.78;;;19.29;35.24
83116;BME280;72996;40.206;44.498;2024-02-15T10:06:20;88777.44;;;18.87;36.29
83116;BME280;72996;40.206;44.498;2024-02-15T10:08:46;88795.81;;;18.50;36.48
83116;BME280;72996;40.206;44.498;2024-02-15T10:11:12;88813.34;;;18.67;37.15
83116;BME280;72996;40.206;44.498;2024-02-15T10:13:38;88814.28;;;18.73;37.00
83116;BME280;72996;40.206;44.498;2024-02-15T10:16:18;88803.28;;;18.67;36.84
83116;BME280;72996;40.206;44.498;2024-02-15T10:18:45;88788.63;;;18.12;37.15
83116;BME280;72996;40.206;44.498;2024-02-15T10:21:32;88812.69;;;18.12;37.05
83116;BME280;72996;40.206;44.498;2024-02-15T10:24:09;88805.00;;;17.91;37.77
83116;BME280;72996;40.206;44.498;2024-02-15T10:26:35;88817.09;;;18.06;37.79
83116;BME280;72996;40.206;44.498;2024-02-15T10:29:11;88784.88;;;18.60;36.83
83116;BME280;72996;40.206;44.498;2024-02-15T10:31:40;88803.13;;;19.52;36.30
83116;BME280;72996;40.206;44.498;2024-02-15T10:34:17;88795.41;;;19.29;34.94
83116;BME280;72996;40.206;44.498;2024-02-15T10:36:44;88788.34;;;18.62;34.84
83116;BME280;72996;40.206;44.498;2024-02-15T10:39:13;88816.94;;;18.73;35.19
83116;BME280;72996;40.206;44.498;2024-02-15T10:41:50;88791.22;;;18.66;33.66
83116;BME280;72996;40.206;44.498;2024-02-15T10:44:20;88785.25;;;18.25;34.47
83116;BME280;72996;40.206;44.498;2024-02-15T10:46:51;88813.84;;;18.50;34.54
83116;BME280;72996;40.206;44.498;2024-02-15T10:49:21;88766.44;;;18.23;34.22
83116;BME280;72996;40.206;44.498;2024-02-15T10:52:00;88807.00;;;18.60;34.53
83116;BME280;72996;40.206;44.498;2024-02-15T10:54:41;88802.19;;;18.72;34.20
83116;BME280;72996;40.206;44.498;2024-02-15T10:57:09;88812.56;;;18.80;34.60
83116;BME280;72996;40.206;44.498;2024-02-15T10:59:37;88779.66;;;18.77;34.37
83116;BME280;72996;40.206;44.498;2024-02-15T11:02:26;88785.59;;;19.05;33.80
83116;BME280;72996;40.206;44.498;2024-02-15T11:04:54;88766.34;;;18.79;34.43
83116;BME280;72996;40.206;44.498;2024-02-15T11:07:25;88784.19;;;18.17;34.51
83116;BME280;72996;40.206;44.498;2024-02-15T11:09:54;88786.88;;;18.03;35.13
83116;BME280;72996;40.206;44.498;2024-02-15T11:12:24;88791.63;;;17.64;36.21
83116;BME280;72996;40.206;44.498;2024-02-15T11:14:52;88790.78;;;17.21;36.68
83116;BME280;72996;40.206;44.498;2024-02-15T11:20:03;88794.03;;;17.19;37.30
83116;BME280;72996;40.206;44.498;2024-02-15T11:22:35;88793.34;;;17.19;37.42
83116;BME280;72996;40.206;44.498;2024-02-15T11:25:08;88794.53;;;17.16;37.68
83116;BME280;72996;40.206;44.498;2024-02-15T11:27:38;88768.50;;;17.16;37.17
83116;BME280;72996;40.206;44.498;2024-02-15T11:30:05;88776.75;;;17.34;36.99
83116;BME280;72996;40.206;44.498;2024-02-15T11:35:23;88791.75;;;17.14;37.31
83116;BME280;72996;40.206;44.498;2024-02-15T11:40:16;88804.56;;;17.04;37.58
83116;BME280;72996;40.206;44.498;2024-02-15T11:42:43;88789.75;;;17.01;37.32
83116;BME280;72996;40.206;44.498;2024-02-15T11:45:09;88792.97;;;16.86;37.48
83116;BME280;72996;40.206;44.498;2024-02-15T11:47:39;88794.31;;;16.73;37.80
83116;BME280;72996;40.206;44.498;2024-02-15T11:50:10;88766.69;;;16.69;37.37
83116;BME280;72996;40.206;44.498;2024-02-15T11:52:41;88788.16;;;16.96;37.54
83116;BME280;72996;40.206;44.498;2024-02-15T11:55:08;88775.94;;;16.79;37.55
83116;BME280;72996;40.206;44.498;2024-02-15T11:57:58;88797.44;;;16.95;37.57
83116;BME280;72996;40.206;44.498;2024-02-15T12:00:46;88778.84;;;16.97;37.55
83116;BME280;72996;40.206;44.498;2024-02-15T12:03:30;88799.66;;;17.12;36.84
83116;BME280;72996;40.206;44.498;2024-02-15T12:06:18;88784.75;;;16.82;37.17
83116;BME280;72996;40.206;44.498;2024-02-15T12:09:02;88808.31;;;16.99;37.67
83116;BME280;72996;40.206;44.498;2024-02-15T12:11:47;88805.00;;;17.12;37.93
83116;BME280;72996;40.206;44.498;2024-02-15T12:14:31;88807.16;;;17.02;37.96
83116;BME280;72996;40.206;44.498;2024-02-15T12:17:15;88803.22;;;16.78;38.17
83116;BME280;72996;40.206;44.498;2024-02-15T12:20:03;88779.47;;;16.70;38.06
83116;BME280;72996;40.206;44.498;2024-02-15T12:22:40;88786.56;;;16.91;37.97
83116;BME280;72996;40.206;44.498;2024-02-15T12:25:07;88786.81;;;16.83;37.75
83116;BME280;72996;40.206;44.498;2024-02-15T12:27:45;88796.06;;;17.07;37.89
83116;BME280;72996;40.206;44.498;2024-02-15T12:30:15;88785.50;;;17.09;37.56
83116;BME280;72996;40.206;44.498;2024-02-15T12:32:45;88797.22;;;16.91;37.88
83116;BME280;72996;40.206;44.498;2024-02-15T12:35:14;88793.38;;;16.69;38.20
83116;BME280;72996;40.206;44.498;2024-02-15T12:37:45;88794.97;;;16.74;38.29
83116;BME280;72996;40.206;44.498;2024-02-15T12:40:20;88783.63;;;16.73;37.95
83116;BME280;72996;40.206;44.498;2024-02-15T12:42:47;88797.34;;;16.68;38.17
83116;BME280;72996;40.206;44.498;2024-02-15T12:45:17;88793.19;;;16.65;38.27
83116;BME280;72996;40.206;44.498;2024-02-15T12:47:52;88771.91;;;16.53;38.56
83116;BME280;72996;40.206;44.498;2024-02-15T12:50:22;88776.25;;;16.60;37.98
83116;BME280;72996;40.206;44.498;2024-02-15T12:52:49;88788.44;;;16.63;37.18
83116;BME280;72996;40.206;44.498;2024-02-15T12:55:20;88788.47;;;16.52;37.22
83116;BME280;72996;40.206;44.498;2024-02-15T12:57:53;88786.22;;;16.35;37.22
83116;BME280;72996;40.206;44.498;2024-02-15T13:00:20;88791.97;;;16.18;37.72
83116;BME280;72996;40.206;44.498;2024-02-15T13:02:50;88768.56;;;16.05;37.38
83116;BME280;72996;40.206;44.498;2024-02-15T13:05:17;88786.09;;;16.33;37.95